sensor_id;sensor_type;location;lat;lon;timestamp;pressure;altitude;pressure_sealevel;temperature;humidity
39823;BME280;25499;53.958;10.970;2023-01-26T08:01:15;102215.03;;;-1.22;100.00
39823;BME280;25499;53.958;10.970;2023-01-26T08:03:40;102216.50;;;-1.26;100.00
39823;BME280;25499;53.958;10.970;2023-01-26T08:06:07;102213.44;;;-1.08;100.00
39823;BME280;25499;53.958;10.970;2023-01-26T08:08:33;102215.41;;;-1.04;100.00
39823;BME280;25499;53.958;10.970;2023-01-26T08:11:00;102219.13;;;-1.13;100.00
39823;BME280;25499;53.958;10.970;2023-01-26T08:13:27;102218.13;;;-1.15;100.00
39823;BME280;25499;53.958;10.970;2023-01-26T08:15:53;102210.47;;;-1.15;100.00
39823;BME280;25499;53.958;10.970;2023-01-26T08:18:18;102218.34;;;-1.11;100.00
39823;BME280;25499;53.958;10.970;2023-01-26T08:20:51;102213.91;;;-1.14;100.00
39823;BME280;25499;53.958;10.970;2023-01-26T08:23:17;102219.22;;;-1.11;100.00
39823;BME280;25499;53.958;10.970;2023-01-26T08:25:43;102221.22;;;-1.07;100.00
39823;BME280;25499;53.958;10.970;2023-01-26T08:28:09;102220.31;;;-1.07;100.00
39823;BME280;25499;53.958;10.970;2023-01-26T08:30:34;102218.44;;;-1.10;100.00
39823;BME280;25499;53.958;10.970;2023-01-26T08:33:01;102210.56;;;-1.13;100.00
39823;BME280;25499;53.958;10.970;2023-01-26T08:35:27;102211.41;;;-1.01;100.00
39823;BME280;25499;53.958;10.970;2023-01-26T08:37:53;102220.16;;;-0.97;100.00
39823;BME280;25499;53.958;10.970;2023-01-26T08:40:18;102216.72;;;-0.98;100.00
39823;BME280;25499;53.958;10.970;2023-01-26T08:42:43;102204.47;;;-0.90;100.00
39823;BME280;25499;53.958;10.970;2023-01-26T08:45:09;102210.56;;;-0.88;100.00
39823;BME280;25499;53.958;10.970;2023-01-26T08:47:35;102207.97;;;-1.01;100.00
39823;BME280;25499;53.958;10.970;2023-01-26T09:01:53;102205.91;;;-0.94;100.00
39823;BME280;25499;53.958;10.970;2023-01-26T09:04:19;102204.66;;;-0.87;100.00
39823;BME280;25499;53.958;10.970;2023-01-26T09:06:45;102211.53;;;-0.86;100.00
39823;BME280;25499;53.958;10.970;2023-01-26T09:09:10;102200.44;;;-0.86;100.00
39823;BME280;25499;53.958;10.970;2023-01-26T09:11:38;102201.81;;;-0.91;100.00
39823;BME280;25499;53.958;10.970;2023-01-26T09:14:04;102198.66;;;-0.87;100.00
39823;BME280;25499;53.958;10.970;2023-01-26T09:16:29;102202.50;;;-0.81;100.00
39823;BME280;25499;53.958;10.970;2023-01-26T09:18:54;102195.94;;;-0.77;100.00
39823;BME280;25499;53.958;10.970;2023-01-26T09:21:20;102201.25;;;-0.74;100.00
39823;BME280;25499;53.958;10.970;2023-01-26T09:23:48;102200.66;;;-0.70;100.00
39823;BME280;25499;53.958;10.970;2023-01-26T09:26:13;102192.69;;;-0.61;100.00
39823;BME280;25499;53.958;10.970;2023-01-26T09:28:39;102203.34;;;-0.55;100.00
39823;BME280;25499;53.958;10.970;2023-01-26T09:31:08;102206.00;;;-0.53;100.00
39823;BME280;25499;53.958;10.970;2023-01-26T09:33:34;102206.09;;;-0.52;100.00
39823;BME280;25499;53.958;10.970;2023-01-26T09:36:05;102202.94;;;-0.48;100.00
39823;BME280;25499;53.958;10.970;2023-01-26T09:38:31;102198.63;;;-0.49;100.00
39823;BME280;25499;53.958;10.970;2023-01-26T09:44:02;102193.72;;;-0.46;100.00
39823;BME280;25499;53.958;10.970;2023-01-26T09:54:48;102187.25;;;-0.41;100.00
39823;BME280;25499;53.958;10.970;2023-01-26T09:57:18;102187.91;;;-0.43;100.00
39823;BME280;25499;53.958;10.970;2023-01-26T10:03:09;102187.63;;;-0.34;100.00
39823;BME280;25499;53.958;10.970;2023-01-26T10:05:31;102191.09;;;-0.34;100.00
39823;BME280;25499;53.958;10.970;2023-01-26T10:07:58;102175.00;;;-0.45;100.00
39823;BME280;25499;53.958;10.970;2023-01-26T10:10:34;102184.94;;;-0.36;100.00
39823;BME280;25499;53.958;10.970;2023-01-26T10:13:00;102181.53;;;-0.36;100.00
39823;BME280;25499;53.958;10.970;2023-01-26T10:15:28;102175.03;;;-0.31;100.00
39823;BME280;25499;53.958;10.970;2023-01-26T10:17:55;102172.66;;;-0.28;100.00
39823;BME280;25499;53.958;10.970;2023-01-26T10:20:27;102172.25;;;-0.34;100.00
39823;BME280;25499;53.958;10.970;2023-01-26T10:23:08;102166.38;;;-0.33;100.00
39823;BME280;25499;53.958;10.970;2023-01-26T10:25:40;102156.25;;;-0.32;100.00
39823;BME280;25499;53.958;10.970;2023-01-26T10:28:18;102164.69;;;-0.33;100.00
39823;BME280;25499;53.958;10.970;2023-01-26T10:30:46;102163.09;;;-0.31;100.00
39823;BME280;25499;53.958;10.970;2023-01-26T10:35:46;102168.03;;;-0.21;100.00
39823;BME280;25499;53.958;10.970;2023-01-26T10:38:41;102161.03;;;-0.10;100.00
39823;BME280;25499;53.958;10.970;2023-01-26T10:44:31;102153.38;;;-0.10;100.00
39823;BME280;25499;53.958;10.970;2023-01-26T10:46:39;102151.47;;;-0.12;100.00
39823;BME280;25499;53.958;10.970;2023-01-26T10:51:36;102156.38;;;-0.02;100.00
39823;BME280;25499;53.958;10.970;2023-01-26T10:54:25;102132.06;;;0.05;100.00
39823;BME280;25499;53.958;10.970;2023-01-26T10:56:56;102130.47;;;0.07;100.00
39823;BME280;25499;53.958;10.970;2023-01-26T11:07:44;102140.81;;;-0.05;100.00
39823;BME280;25499;53.958;10.970;2023-01-26T11:10:30;102134.63;;;-0.09;100.00
39823;BME280;25499;53.958;10.970;2023-01-26T11:15:35;102139.59;;;-0.12;100.00
39823;BME280;25499;53.958;10.970;2023-01-26T11:21:05;102135.91;;;-0.02;100.00
39823;BME280;25499;53.958;10.970;2023-01-26T11:39:25;102128.13;;;-0.04;100.00
39823;BME280;25499;53.958;10.970;2023-01-26T11:55:30;102121.81;;;0.05;100.00
39823;BME280;25499;53.958;10.970;2023-01-26T11:58:19;102118.69;;;0.09;100.00
39823;BME280;25499;53.958;10.970;2023-01-26T12:03:50;102129.69;;;0.08;100.00
39823;BME280;25499;53.958;10.970;2023-01-26T12:06:35;102118.94;;;0.13;100.00
39823;BME280;25499;53.958;10.970;2023-01-26T12:09:03;102125.84;;;0.14;100.00
39823;BME280;25499;53.958;10.970;2023-01-26T12:20:00;102099.91;;;0.23;100.00
39823;BME280;25499;53.958;10.970;2023-01-26T12:22:35;102103.53;;;0.27;100.00
39823;BME280;25499;53.958;10.970;2023-01-26T12:25:25;102097.53;;;0.26;100.00
39823;BME280;25499;53.958;10.970;2023-01-26T12:28:28;102087.38;;;0.28;100.00
39823;BME280;25499;53.958;10.970;2023-01-26T12:31:23;102085.56;;;0.40;100.00
39823;BME280;25499;53.958;10.970;2023-01-26T12:33:54;102088.84;;;0.38;100.00
39823;BME280;25499;53.958;10.970;2023-01-26T12:38:54;102081.94;;;0.36;100.00
39823;BME280;25499;53.958;10.970;2023-01-26T12:41:34;102085.75;;;0.43;100.00
39823;BME280;25499;53.958;10.970;2023-01-26T12:46:37;102085.66;;;0.42;100.00
39823;BME280;25499;53.958;10.970;2023-01-26T12:49:09;102083.19;;;0.43;100.00
39823;BME280;25499;53.958;10.970;2023-01-26T12:51:44;102081.69;;;0.47;100.00
39823;BME280;25499;53.958;10.970;2023-01-26T12:54:41;102085.41;;;0.52;100.00
39823;BME280;25499;53.958;10.970;2023-01-26T12:57:06;102085.41;;;0.52;100.00
39823;BME280;25499;53.958;10.970;2023-01-26T12:59:37;102077.91;;;0.55;100.00
39823;BME280;25499;53.958;10.970;2023-01-26T13:02:26;102080.75;;;0.60;100.00
39823;BME280;25499;53.958;10.970;2023-01-26T13:04:54;102090.28;;;0.62;100.00
39823;BME280;25499;53.958;10.970;2023-01-26T13:07:30;102081.81;;;0.63;100.00
39823;BME280;25499;53.958;10.970;2023-01-26T13:10:20;102083.13;;;0.71;100.00
39823;BME280;25499;53.958;10.970;2023-01-26T13:15:21;102082.22;;;0.71;100.00
39823;BME280;25499;53.958;10.970;2023-01-26T13:17:50;102088.41;;;0.74;100.00
39823;BME280;25499;53.958;10.970;2023-01-26T13:20:48;102090.00;;;0.72;100.00
39823;BME280;25499;53.958;10.970;2023-01-26T13:23:42;102096.09;;;0.74;100.00
39823;BME280;25499;53.958;10.970;2023-01-26T13:28:36;102089.91;;;0.71;100.00
39823;BME280;25499;53.958;10.970;2023-01-26T13:31:03;102086.50;;;0.70;100.00
39823;BME280;25499;53.958;10.970;2023-01-26T13:33:30;102097.59;;;0.71;100.00
39823;BME280;25499;53.958;10.970;2023-01-26T13:35:56;102095.16;;;0.72;100.00
39823;BME280;25499;53.958;10.970;2023-01-26T13:38:32;102099.41;;;0.72;100.00
39823;BME280;25499;53.958;10.970;2023-01-26T13:40:58;102099.47;;;0.73;100.00
39823;BME280;25499;53.958;10.970;2023-01-26T13:43:53;102106.38;;;0.74;100.00
39823;BME280;25499;53.958;10.970;2023-01-26T13:46:41;102112.72;;;0.81;100.00
39823;BME280;25499;53.958;10.970;2023-01-26T13:49:40;102102.75;;;0.86;100.00
39823;BME280;25499;53.958;10.970;2023-01-26T13:52:24;102102.94;;;0.89;100.00
39823;BME280;25499;53.958;10.970;2023-01-26T13:54:53;102109.03;;;0.91;100.00
39823;BME280;25499;53.958;10.970;2023-01-26T13:57:28;102108.25;;;0.92;100.00
39823;BME280;25499;53.958;10.970;2023-01-26T13:59:56;102107.44;;;0.93;100.00
39823;BME280;25499;53.958;10.970;2023-01-26T14:02:31;102108.44;;;0.95;100.00
39823;BME280;25499;53.958;10.970;2023-01-26T14:04:57;102114.63;;;0.99;100.00
39823;BME280;25499;53.958;10.970;2023-01-26T14:07:31;102118.16;;;1.01;100.00
39823;BME280;25499;53.958;10.970;2023-01-26T14:09:59;102115.69;;;1.02;100.00
39823;BME280;25499;53.958;10.970;2023-01-26T14:12:33;102119.22;;;1.04;100.00
39823;BME280;25499;53.958;10.970;2023-01-26T14:15:05;102118.56;;;1.08;100.00
39823;BME280;25499;53.958;10.970;2023-01-26T14:17:34;102128.16;;;1.11;100.00
39823;BME280;25499;53.958;10.970;2023-01-26T14:20:28;102122.28;;;1.14;100.00
39823;BME280;25499;53.958;10.970;2023-01-26T14:25:32;102137.16;;;1.19;100.00
39823;BME280;25499;53.958;10.970;2023-01-26T14:27:58;102136.53;;;1.23;100.00
39823;BME280;25499;53.958;10.970;2023-01-26T14:30:27;102137.41;;;1.24;100.00
39823;BME280;25499;53.958;10.970;2023-01-26T14:33:06;102140.97;;;1.26;100.00
39823;BME280;25499;53.958;10.970;2023-01-26T14:35:35;102149.53;;;1.26;100.00
39823;BME280;25499;53.958;10.970;2023-01-26T14:40:42;102148.13;;;1.32;100.00
39823;BME280;25499;53.958;10.970;2023-01-26T14:43:08;102143.97;;;1.34;100.00
39823;BME280;25499;53.958;10.970;2023-01-26T14:45:35;102146.63;;;1.35;100.00
39823;BME280;25499;53.958;10.970;2023-01-26T14:48:06;102145.09;;;1.39;100.00
39823;BME280;25499;53.958;10.970;2023-01-26T14:50:33;102155.28;;;1.37;100.00
39823;BME280;25499;53.958;10.970;2023-01-26T14:53:01;102151.28;;;1.42;100.00
39823;BME280;25499;53.958;10.970;2023-01-26T14:55:30;102154.59;;;1.40;100.00
39823;BME280;25499;53.958;10.970;2023-01-26T14:57:58;102160.59;;;1.40;100.00
39823;BME280;25499;53.958;10.970;2023-01-26T15:00:32;102160.78;;;1.43;100.00
39823;BME280;25499;53.958;10.970;2023-01-26T15:03:03;102160.78;;;1.43;100.00
39823;BME280;25499;53.958;10.970;2023-01-26T15:05:31;102167.69;;;1.44;100.00
39823;BME280;25499;53.958;10.970;2023-01-26T15:08:23;102170.31;;;1.46;100.00
39823;BME280;25499;53.958;10.970;2023-01-26T15:10:57;102169.44;;;1.45;100.00
39823;BME280;25499;53.958;10.970;2023-01-26T15:13:44;102165.44;;;1.51;100.00
39823;BME280;25499;53.958;10.970;2023-01-26T15:16:15;102171.53;;;1.53;100.00
39823;BME280;25499;53.958;10.970;2023-01-26T15:18:41;102170.94;;;1.57;100.00
39823;BME280;25499;53.958;10.970;2023-01-26T15:21:17;102176.25;;;1.60;100.00
39823;BME280;25499;53.958;10.970;2023-01-26T15:23:54;102174.56;;;1.60;100.00
39823;BME280;25499;53.958;10.970;2023-01-26T15:26:32;102170.47;;;1.64;100.00
39823;BME280;25499;53.958;10.970;2023-01-26T15:29:04;102173.84;;;1.63;100.00
39823;BME280;25499;53.958;10.970;2023-01-26T15:31:36;102168.28;;;1.55;100.00
39823;BME280;25499;53.958;10.970;2023-01-26T15:34:03;102172.00;;;1.60;100.00
39823;BME280;25499;53.958;10.970;2023-01-26T15:36:34;102164.19;;;1.59;100.00
39823;BME280;25499;53.958;10.970;2023-01-26T15:39:11;102166.22;;;1.64;100.00
39823;BME280;25499;53.958;10.970;2023-01-26T15:41:37;102169.34;;;1.59;100.00
39823;BME280;25499;53.958;10.970;2023-01-26T15:44:03;102160.84;;;1.60;100.00
39823;BME280;25499;53.958;10.970;2023-01-26T15:46:28;102164.19;;;1.59;100.00
39823;BME280;25499;53.958;10.970;2023-01-26T15:48:54;102166.06;;;1.61;100.00
39823;BME280;25499;53.958;10.970;2023-01-26T15:51:20;102161.72;;;1.60;100.00
39823;BME280;25499;53.958;10.970;2023-01-26T15:53:45;102160.94;;;1.61;100.00
39823;BME280;25499;53.958;10.970;2023-01-26T15:56:13;102160.84;;;1.60;100.00
39823;BME280;25499;53.958;10.970;2023-01-26T15:58:39;102160.03;;;1.61;100.00
39823;BME280;25499;53.958;10.970;2023-01-26T16:01:06;102155.06;;;1.64;100.00
39823;BME280;25499;53.958;10.970;2023-01-26T16:03:32;102149.94;;;1.64;100.00
39823;BME280;25499;53.958;10.970;2023-01-26T16:05:57;102149.16;;;1.65;100.00
39823;BME280;25499;53.958;10.970;2023-01-26T16:08:23;102150.91;;;1.66;100.00
39823;BME280;25499;53.958;10.970;2023-01-26T16:10:48;102154.53;;;1.70;100.00
39823;BME280;25499;53.958;10.970;2023-01-26T16:13:16;102155.25;;;1.67;100.00
39823;BME280;25499;53.958;10.970;2023-01-26T16:18:09;102144.16;;;1.68;100.00
39823;BME280;25499;53.958;10.970;2023-01-26T16:20:37;102147.56;;;1.67;100.00
39823;BME280;25499;53.958;10.970;2023-01-26T16:23:20;102149.38;;;1.70;100.00
39823;BME280;25499;53.958;10.970;2023-01-26T16:25:46;102148.69;;;1.72;100.00
39823;BME280;25499;53.958;10.970;2023-01-26T16:28:12;102151.25;;;1.72;100.00
39823;BME280;25499;53.958;10.970;2023-01-26T16:30:41;102159.75;;;1.71;100.00
39823;BME280;25499;53.958;10.970;2023-01-26T16:33:10;102161.63;;;1.74;100.00
39823;BME280;25499;53.958;10.970;2023-01-26T16:35:36;102158.22;;;1.75;100.00
39823;BME280;25499;53.958;10.970;2023-01-26T16:38:02;102164.28;;;1.75;100.00
39823;BME280;25499;53.958;10.970;2023-01-26T16:40:29;102169.50;;;1.77;100.00
39823;BME280;25499;53.958;10.970;2023-01-26T16:42:55;102176.28;;;1.76;100.00
39823;BME280;25499;53.958;10.970;2023-01-26T16:45:22;102175.41;;;1.76;100.00
39823;BME280;25499;53.958;10.970;2023-01-26T16:47:50;102175.50;;;1.77;100.00
39823;BME280;25499;53.958;10.970;2023-01-26T16:50:17;102168.69;;;1.78;100.00
39823;BME280;25499;53.958;10.970;2023-01-26T16:52:42;102173.91;;;1.79;100.00
39823;BME280;25499;53.958;10.970;2023-01-26T16:55:09;102172.28;;;1.81;100.00
39823;BME280;25499;53.958;10.970;2023-01-26T16:57:40;102169.91;;;1.84;100.00
39823;BME280;25499;53.958;10.970;2023-01-26T17:00:17;102177.00;;;1.89;100.00
39823;BME280;25499;53.958;10.970;2023-01-26T17:02:47;102178.84;;;1.91;100.00
39823;BME280;25499;53.958;10.970;2023-01-26T17:05:15;102178.91;;;1.93;100.00
39823;BME280;25499;53.958;10.970;2023-01-26T17:07:41;102180.78;;;1.95;100.00
39823;BME280;25499;53.958;10.970;2023-01-26T17:10:07;102190.25;;;1.96;100.00
39823;BME280;25499;53.958;10.970;2023-01-26T17:12:33;102193.78;;;1.98;100.00
39823;BME280;25499;53.958;10.970;2023-01-26T17:14:58;102191.38;;;2.01;100.00
39823;BME280;25499;53.958;10.970;2023-01-26T17:17:24;102192.34;;;2.03;100.00
39823;BME280;25499;53.958;10.970;2023-01-26T17:19:49;102196.78;;;2.06;100.00
39823;BME280;25499;53.958;10.970;2023-01-26T17:22:15;102198.00;;;2.13;100.00
39823;BME280;25499;53.958;10.970;2023-01-26T17:24:40;102197.34;;;2.17;100.00
39823;BME280;25499;53.958;10.970;2023-01-26T17:27:07;102201.78;;;2.19;100.00
39823;BME280;25499;53.958;10.970;2023-01-26T17:29:35;102196.81;;;2.22;100.00
39823;BME280;25499;53.958;10.970;2023-01-26T17:32:01;102205.59;;;2.26;100.00
39823;BME280;25499;53.958;10.970;2023-01-26T17:34:27;102209.28;;;2.31;100.00
39823;BME280;25499;53.958;10.970;2023-01-26T17:36:52;102204.38;;;2.36;100.00
39823;BME280;25499;53.958;10.970;2023-01-26T17:39:18;102208.00;;;2.39;100.00
39823;BME280;25499;53.958;10.970;2023-01-26T17:41:44;102210.81;;;2.44;100.00
39823;BME280;25499;53.958;10.970;2023-01-26T17:44:10;102210.81;;;2.44;100.00
39823;BME280;25499;53.958;10.970;2023-01-26T17:46:37;102214.38;;;2.46;100.00
39823;BME280;25499;53.958;10.970;2023-01-26T17:49:03;102210.97;;;2.47;100.00
39823;BME280;25499;53.958;10.970;2023-01-26T17:51:29;102213.38;;;2.44;100.00
39823;BME280;25499;53.958;10.970;2023-01-26T17:53:54;102213.28;;;2.42;100.00
39823;BME280;25499;53.958;10.970;2023-01-26T17:56:20;102214.19;;;2.43;100.00
39823;BME280;25499;53.958;10.970;2023-01-26T17:58:51;102217.56;;;2.42;100.00
39823;BME280;25499;53.958;10.970;2023-01-26T18:01:19;102228.88;;;2.46;100.00
39823;BME280;25499;53.958;10.970;2023-01-26T18:03:44;102229.78;;;2.46;100.00
39823;BME280;25499;53.958;10.970;2023-01-26T18:06:10;102231.53;;;2.47;100.00
39823;BME280;25499;53.958;10.970;2023-01-26T18:08:37;102235.06;;;2.49;100.00
39823;BME280;25499;53.958;10.970;2023-01-26T18:11:04;102235.06;;;2.49;100.00
39823;BME280;25499;53.958;10.970;2023-01-26T18:13:31;102239.50;;;2.52;100.00
39823;BME280;25499;53.958;10.970;2023-01-26T18:15:57;102226.66;;;2.52;100.00
39823;BME280;25499;53.958;10.970;2023-01-26T18:18:24;102225.78;;;2.51;100.00
39823;BME280;25499;53.958;10.970;2023-01-26T18:20:51;102225.78;;;2.51;100.00
39823;BME280;25499;53.958;10.970;2023-01-26T18:23:17;102233.53;;;2.53;100.00
39823;BME280;25499;53.958;10.970;2023-01-26T18:25:43;102226.91;;;2.56;100.00
39823;BME280;25499;53.958;10.970;2023-01-26T18:28:12;102231.16;;;2.56;100.00
39823;BME280;25499;53.958;10.970;2023-01-26T18:30:38;102235.41;;;2.55;100.00
39823;BME280;25499;53.958;10.970;2023-01-26T18:33:04;102235.50;;;2.57;100.00
39823;BME280;25499;53.958;10.970;2023-01-26T18:35:30;102224.34;;;2.56;100.00
39823;BME280;25499;53.958;10.970;2023-01-26T18:37:56;102238.06;;;2.57;100.00
39823;BME280;25499;53.958;10.970;2023-01-26T18:40:22;102231.31;;;2.59;100.00
39823;BME280;25499;53.958;10.970;2023-01-26T18:42:48;102233.88;;;2.59;100.00
39823;BME280;25499;53.958;10.970;2023-01-26T18:45:14;102231.50;;;2.62;100.00
39823;BME280;25499;53.958;10.970;2023-01-26T18:47:40;102233.19;;;2.61;100.00
39823;BME280;25499;53.958;10.970;2023-01-26T18:50:06;102241.78;;;2.62;100.00
39823;BME280;25499;53.958;10.970;2023-01-26T18:52:31;102243.47;;;2.61;100.00
39823;BME280;25499;53.958;10.970;2023-01-26T18:54:57;102242.66;;;2.63;100.00
39823;BME280;25499;53.958;10.970;2023-01-26T18:57:22;102246.13;;;2.63;100.00
39823;BME280;25499;53.958;10.970;2023-01-26T18:59:48;102252.94;;;2.63;100.00
39823;BME280;25499;53.958;10.970;2023-01-26T19:02:13;102252.94;;;2.63;100.00
39823;BME280;25499;53.958;10.970;2023-01-26T19:04:40;102250.53;;;2.66;100.00
39823;BME280;25499;53.958;10.970;2023-01-26T19:07:06;102250.53;;;2.66;100.00
39823;BME280;25499;53.958;10.970;2023-01-26T19:09:33;102259.19;;;2.68;100.00
39823;BME280;25499;53.958;10.970;2023-01-26T19:12:00;102260.97;;;2.69;100.00
39823;BME280;25499;53.958;10.970;2023-01-26T19:14:27;102266.91;;;2.68;100.00
39823;BME280;25499;53.958;10.970;2023-01-26T19:16:56;102267.81;;;2.68;100.00
39823;BME280;25499;53.958;10.970;2023-01-26T19:19:22;102266.28;;;2.72;100.00
39823;BME280;25499;53.958;10.970;2023-01-26T19:21:48;102274.22;;;2.76;100.00
39823;BME280;25499;53.958;10.970;2023-01-26T19:24:13;102276.81;;;2.76;100.00
39823;BME280;25499;53.958;10.970;2023-01-26T19:26:39;102272.69;;;2.80;100.00
39823;BME280;25499;53.958;10.970;2023-01-26T19:29:04;102275.28;;;2.80;100.00
39823;BME280;25499;53.958;10.970;2023-01-26T19:31:30;102277.84;;;2.80;100.00
39823;BME280;25499;53.958;10.970;2023-01-26T19:34:02;102270.88;;;2.77;100.00
39823;BME280;25499;53.958;10.970;2023-01-26T19:36:29;102275.13;;;2.77;100.00
39823;BME280;25499;53.958;10.970;2023-01-26T19:38:55;102275.13;;;2.77;100.00
39823;BME280;25499;53.958;10.970;2023-01-26T19:41:21;102277.13;;;2.83;100.00
39823;BME280;25499;53.958;10.970;2023-01-26T19:43:47;102265.00;;;2.80;100.00
39823;BME280;25499;53.958;10.970;2023-01-26T19:46:15;102270.09;;;2.78;100.00
39823;BME280;25499;53.958;10.970;2023-01-26T19:48:41;102263.25;;;2.79;100.00
39823;BME280;25499;53.958;10.970;2023-01-26T19:51:14;102267.56;;;2.80;100.00
39823;BME280;25499;53.958;10.970;2023-01-26T19:53:42;102266.69;;;2.79;100.00
39823;BME280;25499;53.958;10.970;2023-01-26T19:56:11;102275.28;;;2.80;100.00
39823;BME280;25499;53.958;10.970;2023-01-26T19:58:37;102271.81;;;2.79;100.00
39823;BME280;25499;53.958;10.970;2023-01-26T20:01:05;102273.63;;;2.80;100.00
39823;BME280;25499;53.958;10.970;2023-01-26T20:03:31;102278.28;;;2.88;100.00
39823;BME280;25499;53.958;10.970;2023-01-26T20:05:57;102278.28;;;2.88;100.00
39823;BME280;25499;53.958;10.970;2023-01-26T20:08:23;102276.56;;;2.88;100.00
39823;BME280;25499;53.958;10.970;2023-01-26T20:10:49;102280.28;;;2.93;100.00
39823;BME280;25499;53.958;10.970;2023-01-26T20:13:14;102277.69;;;2.93;100.00
39823;BME280;25499;53.958;10.970;2023-01-26T20:15:40;102269.97;;;2.93;100.00
39823;BME280;25499;53.958;10.970;2023-01-26T20:18:05;102269.97;;;2.93;100.00
39823;BME280;25499;53.958;10.970;2023-01-26T20:20:32;102270.88;;;2.94;100.00
39823;BME280;25499;53.958;10.970;2023-01-26T20:22:57;102272.09;;;3.01;100.00
39823;BME280;25499;53.958;10.970;2023-01-26T20:25:23;102270.31;;;2.99;100.00
39823;BME280;25499;53.958;10.970;2023-01-26T20:27:49;102265.16;;;2.99;100.00
39823;BME280;25499;53.958;10.970;2023-01-26T20:30:14;102260.19;;;3.03;100.00
39823;BME280;25499;53.958;10.970;2023-01-26T20:32:41;102265.34;;;3.03;100.00
39823;BME280;25499;53.958;10.970;2023-01-26T20:35:10;102263.56;;;3.02;100.00
39823;BME280;25499;53.958;10.970;2023-01-26T20:37:36;102267.09;;;3.04;100.00
39823;BME280;25499;53.958;10.970;2023-01-26T20:40:03;102265.41;;;3.04;100.00
39823;BME280;25499;53.958;10.970;2023-01-26T20:42:29;102267.16;;;3.05;100.00
39823;BME280;25499;53.958;10.970;2023-01-26T20:44:55;102264.69;;;3.07;100.00
39823;BME280;25499;53.958;10.970;2023-01-26T20:47:23;102266.53;;;3.09;100.00
39823;BME280;25499;53.958;10.970;2023-01-26T20:49:49;102270.78;;;3.09;100.00
